createdAt,value
2022-12-01T00:01:14.027Z,41.50
2022-12-01T00:03:40.715Z,43.25
2022-12-01T00:06:10.864Z,42.15
2022-12-01T00:08:37.674Z,44.33
2022-12-01T00:11:14.496Z,47.97
2022-12-01T00:13:41.071Z,41.20
2022-12-01T00:16:16.474Z,41.60
2022-12-01T00:18:43.852Z,42.22
2022-12-01T00:21:18.234Z,38.60
2022-12-01T00:23:49.547Z,41.65
2022-12-01T00:26:17.665Z,45.72
2022-12-01T00:28:44.265Z,45.25
2022-12-01T00:31:12.374Z,44.78
2022-12-01T00:33:39.599Z,44.88
2022-12-01T00:36:07.407Z,42.33
2022-12-01T00:38:34.618Z,42.70
2022-12-01T00:41:01.726Z,44.55
2022-12-01T00:43:28.318Z,43.13
2022-12-01T00:45:56.409Z,42.15
2022-12-01T00:48:23.435Z,41.38
2022-12-01T00:50:52.117Z,42.05
2022-12-01T00:53:18.895Z,47.05
2022-12-01T00:55:45.777Z,39.83
2022-12-01T00:58:12.426Z,39.20
2022-12-01T01:00:39.030Z,39.65
2022-12-01T01:03:07.078Z,40.35
2022-12-01T01:05:41.587Z,43.85
2022-12-01T01:08:13.175Z,46.08
2022-12-01T01:10:45.015Z,38.92
2022-12-01T01:13:13.091Z,43.25
2022-12-01T01:15:40.118Z,38.80
2022-12-01T01:18:09.503Z,39.45
2022-12-01T01:20:36.104Z,41.45
2022-12-01T01:23:02.916Z,43.42
2022-12-01T01:25:29.556Z,36.38
2022-12-01T01:27:56.207Z,43.33
2022-12-01T01:30:22.836Z,37.85
2022-12-01T01:32:49.421Z,44.20
2022-12-01T01:35:16.013Z,41.05
2022-12-01T01:37:42.602Z,42.33
2022-12-01T01:40:09.723Z,40.60
2022-12-01T01:42:36.279Z,42.30
2022-12-01T01:45:03.147Z,46.85
2022-12-01T01:47:34.823Z,47.65
2022-12-01T01:50:08.390Z,44.63
2022-12-01T01:52:38.519Z,44.55
2022-12-01T01:55:05.771Z,47.13
2022-12-01T01:57:34.187Z,52.22
2022-12-01T02:00:07.943Z,45.75
2022-12-01T02:02:43.520Z,50.72
2022-12-01T02:05:16.686Z,47.70
2022-12-01T02:07:45.405Z,44.78
2022-12-01T02:10:14.352Z,50.03
2022-12-01T02:12:59.704Z,47.38
2022-12-01T02:15:32.210Z,48.85
2022-12-01T02:18:24.761Z,42.30
2022-12-01T02:21:33.026Z,50.08
2022-12-01T02:24:51.474Z,42.58
2022-12-01T02:27:27.142Z,48.10
2022-12-01T02:29:56.363Z,47.25
2022-12-01T02:32:51.977Z,41.47
2022-12-01T02:35:42.083Z,50.17
2022-12-01T02:38:21.105Z,45.47
2022-12-01T02:40:55.719Z,53.92
2022-12-01T02:43:44.996Z,43.70
2022-12-01T02:46:28.518Z,51.20
2022-12-01T02:48:58.988Z,45.22
2022-12-01T02:51:30.311Z,41.95
2022-12-01T02:53:59.281Z,56.65
2022-12-01T02:56:26.014Z,47.47
2022-12-01T02:58:52.773Z,46.92
2022-12-01T03:01:37.723Z,44.47
2022-12-01T03:04:30.401Z,50.95
2022-12-01T03:07:38.844Z,44.92
2022-12-01T03:10:25.133Z,49.60
2022-12-01T03:12:57.800Z,54.47
2022-12-01T03:15:42.568Z,50.15
2022-12-01T03:18:35.591Z,47.28
2022-12-01T03:21:17.387Z,51.40
2022-12-01T03:23:47.800Z,50.85
2022-12-01T03:26:18.368Z,47.70
2022-12-01T03:31:22.920Z,56.47
2022-12-01T03:33:55.738Z,53.53
2022-12-01T03:36:27.838Z,49.20
2022-12-01T03:39:03.108Z,57.03
2022-12-01T03:41:37.238Z,59.42
2022-12-01T03:44:11.324Z,51.92
2022-12-01T03:46:55.388Z,53.72
2022-12-01T03:49:23.819Z,54.00
2022-12-01T03:51:58.830Z,48.55
2022-12-01T03:54:28.287Z,54.38
2022-12-01T03:57:05.354Z,56.08
2022-12-01T03:59:35.792Z,59.65
2022-12-01T04:02:02.536Z,56.28
2022-12-01T04:04:29.179Z,58.65
2022-12-01T04:06:55.737Z,55.30
2022-12-01T04:09:22.295Z,55.60
2022-12-01T04:12:07.619Z,61.40
2022-12-01T04:14:34.198Z,56.42
2022-12-01T04:17:00.772Z,49.08
2022-12-01T04:19:27.670Z,51.85
2022-12-01T04:21:54.250Z,63.47
2022-12-01T04:24:20.872Z,51.22
2022-12-01T04:26:47.494Z,62.65
2022-12-01T04:29:14.500Z,52.83
2022-12-01T04:31:41.615Z,61.22
2022-12-01T04:34:09.598Z,63.25
2022-12-01T04:36:36.199Z,57.95
2022-12-01T04:39:03.585Z,57.30
2022-12-01T04:41:30.183Z,53.40
2022-12-01T04:43:56.754Z,59.28
2022-12-01T04:46:24.314Z,59.85
2022-12-01T04:48:51.616Z,59.70
2022-12-01T04:51:18.433Z,63.08
2022-12-01T04:53:45.178Z,64.85
2022-12-01T04:56:11.808Z,68.22
2022-12-01T04:58:39.042Z,68.72
2022-12-01T05:01:14.396Z,66.95
2022-12-01T05:03:43.911Z,67.13
2022-12-01T05:06:16.479Z,58.30
2022-12-01T05:08:43.098Z,70.75
2022-12-01T05:11:12.191Z,73.78
2022-12-01T05:13:43.678Z,60.88
2022-12-01T05:16:15.677Z,70.70
2022-12-01T05:18:42.615Z,70.20
2022-12-01T05:21:11.042Z,77.05
2022-12-01T05:23:38.701Z,76.25
2022-12-01T05:26:07.658Z,70.10
2022-12-01T05:28:34.876Z,80.60
2022-12-01T05:31:01.772Z,63.85
2022-12-01T05:33:29.203Z,74.20
2022-12-01T05:35:56.187Z,66.38
2022-12-01T05:38:22.976Z,70.45
2022-12-01T05:40:54.420Z,73.10
2022-12-01T05:43:28.262Z,74.25
2022-12-01T05:45:57.045Z,66.70
2022-12-01T05:48:24.142Z,70.40
2022-12-01T05:50:50.942Z,69.72
2022-12-01T05:53:18.364Z,76.00
2022-12-01T05:55:45.624Z,66.32
2022-12-01T05:58:12.474Z,71.35
2022-12-01T06:00:45.248Z,72.35
2022-12-01T06:03:13.129Z,69.13
2022-12-01T06:05:39.984Z,65.18
2022-12-01T06:08:06.685Z,72.90
2022-12-01T06:10:33.347Z,68.03
2022-12-01T06:12:59.924Z,72.07
2022-12-01T06:15:27.303Z,80.25
2022-12-01T06:17:53.931Z,67.70
2022-12-01T06:20:20.479Z,70.90
2022-12-01T06:22:47.053Z,59.70
2022-12-01T06:25:13.613Z,60.60
2022-12-01T06:27:40.165Z,58.92
2022-12-01T06:30:07.524Z,62.90
2022-12-01T06:32:34.086Z,69.13
2022-12-01T06:35:00.715Z,61.72
2022-12-01T06:37:28.039Z,61.70
2022-12-01T06:39:54.706Z,61.35
2022-12-01T06:42:21.409Z,65.82
2022-12-01T06:44:48.011Z,67.60
2022-12-01T06:47:15.915Z,62.70
2022-12-01T06:49:42.729Z,75.78
2022-12-01T06:52:10.146Z,74.03
2022-12-01T06:54:37.510Z,68.50
2022-12-01T06:57:04.846Z,60.85
2022-12-01T06:59:31.697Z,59.17
2022-12-01T07:01:58.825Z,58.53
2022-12-01T07:04:25.557Z,68.75
2022-12-01T07:06:52.139Z,66.13
2022-12-01T07:09:18.790Z,65.20
2022-12-01T07:11:45.395Z,57.78
2022-12-01T07:14:24.134Z,61.03
2022-12-01T07:16:51.306Z,70.72
2022-12-01T07:19:18.374Z,61.97
2022-12-01T07:21:44.967Z,60.28
2022-12-01T07:24:14.397Z,65.85
2022-12-01T07:26:42.099Z,60.97
2022-12-01T07:29:10.269Z,56.95
2022-12-01T07:31:38.170Z,63.75
2022-12-01T07:34:05.699Z,63.88
2022-12-01T07:36:32.497Z,72.63
2022-12-01T07:38:59.058Z,68.30
2022-12-01T07:41:25.866Z,63.90
2022-12-01T07:43:52.474Z,62.72
2022-12-01T07:46:23.690Z,65.70
2022-12-01T07:48:51.005Z,59.95
2022-12-01T07:51:17.757Z,67.65
2022-12-01T07:53:49.505Z,76.68
2022-12-01T07:56:17.579Z,68.90
2022-12-01T07:58:44.379Z,73.25
2022-12-01T08:01:13.638Z,79.13
2022-12-01T08:03:40.962Z,71.20
2022-12-01T08:06:08.414Z,75.10
2022-12-01T08:08:36.772Z,72.65
2022-12-01T08:11:06.537Z,66.55
2022-12-01T08:13:33.357Z,70.13
2022-12-01T08:16:04.186Z,66.90
2022-12-01T08:18:30.777Z,62.78
2022-12-01T08:21:00.455Z,70.82
2022-12-01T08:23:27.045Z,74.22
2022-12-01T08:25:53.997Z,61.65
2022-12-01T08:28:21.232Z,59.30
2022-12-01T08:30:47.895Z,59.67
2022-12-01T08:33:14.585Z,60.83
2022-12-01T08:35:41.207Z,60.30
2022-12-01T08:38:08.920Z,68.97
2022-12-01T08:40:35.489Z,66.63
2022-12-01T08:43:02.243Z,72.00
2022-12-01T08:45:28.784Z,72.80
2022-12-01T08:47:58.967Z,69.32
2022-12-01T08:50:27.175Z,70.35
2022-12-01T08:52:54.467Z,75.68
2022-12-01T08:55:22.169Z,70.25
2022-12-01T08:57:48.760Z,67.38
2022-12-01T09:00:16.250Z,67.93
2022-12-01T09:02:42.997Z,72.78
2022-12-01T09:05:10.106Z,75.35
2022-12-01T09:07:36.701Z,63.53
2022-12-01T09:10:04.329Z,62.65
2022-12-01T09:12:30.981Z,69.15
2022-12-01T09:14:57.519Z,82.00
2022-12-01T09:17:24.295Z,72.72
2022-12-01T09:19:51.312Z,62.45
2022-12-01T09:22:18.161Z,68.18
2022-12-01T09:24:45.139Z,71.55
2022-12-01T09:27:11.751Z,66.60
2022-12-01T09:29:38.521Z,73.63
2022-12-01T09:32:05.299Z,67.97
2022-12-01T09:34:31.968Z,69.30
2022-12-01T09:36:58.814Z,65.50
2022-12-01T09:39:25.590Z,64.60
2022-12-01T09:41:55.512Z,72.20
2022-12-01T09:44:34.085Z,44.40
2022-12-01T09:47:05.546Z,60.42
2022-12-01T09:49:51.831Z,64.30
2022-12-01T09:52:19.886Z,68.63
2022-12-01T09:54:50.265Z,64.68
2022-12-01T09:57:39.756Z,63.60
2022-12-01T10:00:21.941Z,56.83
2022-12-01T10:03:12.931Z,63.33
2022-12-01T10:06:25.298Z,63.53
2022-12-01T10:08:43.250Z,63.55
2022-12-01T10:11:32.304Z,61.92
2022-12-01T10:14:00.003Z,65.25
2022-12-01T10:16:38.278Z,62.25
2022-12-01T10:19:16.252Z,70.40
2022-12-01T10:22:18.526Z,52.55
2022-12-01T10:25:14.953Z,65.38
2022-12-01T10:28:12.005Z,60.40
2022-12-01T10:30:49.189Z,51.35
2022-12-01T10:33:35.458Z,53.03
2022-12-01T10:36:02.362Z,47.90
2022-12-01T10:38:34.341Z,56.72
2022-12-01T10:41:03.285Z,58.42
2022-12-01T10:43:39.406Z,50.17
2022-12-01T10:46:40.287Z,53.92
2022-12-01T10:54:13.282Z,55.70
2022-12-01T10:56:41.705Z,56.22
2022-12-01T10:59:21.440Z,50.47
2022-12-01T11:01:48.537Z,61.27
2022-12-01T11:04:45.061Z,55.17
2022-12-01T11:07:28.210Z,60.65
2022-12-01T11:10:18.051Z,55.53
2022-12-01T11:13:20.840Z,64.53
2022-12-01T11:15:55.995Z,58.78
2022-12-01T11:18:24.477Z,53.25
2022-12-01T11:21:10.066Z,61.13
2022-12-01T11:23:48.818Z,52.20
2022-12-01T11:26:28.136Z,53.95
2022-12-01T11:29:06.948Z,60.22
2022-12-01T11:31:47.970Z,62.38
2022-12-01T11:34:19.478Z,53.85
2022-12-01T11:36:49.122Z,51.90
2022-12-01T11:39:32.494Z,53.37
2022-12-01T11:42:02.645Z,52.35
2022-12-01T11:47:28.098Z,51.50
2022-12-01T11:49:57.397Z,58.30
2022-12-01T11:52:27.374Z,54.50
2022-12-01T11:55:08.233Z,43.22
2022-12-01T11:57:39.069Z,53.55
2022-12-01T12:00:21.923Z,56.78
2022-12-01T12:03:06.779Z,52.58
2022-12-01T12:06:31.893Z,54.40
2022-12-01T12:09:03.680Z,54.75
2022-12-01T12:11:46.645Z,51.70
2022-12-01T12:14:22.148Z,55.25
2022-12-01T12:17:15.073Z,52.20
2022-12-01T12:20:08.168Z,50.50
2022-12-01T12:23:18.846Z,44.45
2022-12-01T12:26:01.287Z,53.22
2022-12-01T12:28:44.993Z,53.60
2022-12-01T12:31:20.608Z,48.15
2022-12-01T12:34:13.082Z,54.80
2022-12-01T12:37:00.583Z,47.83
2022-12-01T12:39:45.380Z,49.08
2022-12-01T12:42:32.200Z,50.45
2022-12-01T12:45:47.480Z,48.20
2022-12-01T12:48:32.712Z,42.63
2022-12-01T12:51:13.533Z,46.50
2022-12-01T12:54:12.331Z,50.83
2022-12-01T12:56:43.420Z,47.30
2022-12-01T12:59:15.792Z,52.45
2022-12-01T13:01:47.715Z,48.80
2022-12-01T13:04:21.279Z,52.38
2022-12-01T13:06:55.922Z,51.38
2022-12-01T13:09:28.661Z,55.97
2022-12-01T13:12:09.894Z,56.20
2022-12-01T13:14:41.707Z,60.25
2022-12-01T13:17:20.327Z,62.53
2022-12-01T13:19:48.452Z,54.38
2022-12-01T13:22:18.000Z,50.05
2022-12-01T13:24:44.778Z,56.35
2022-12-01T13:27:14.655Z,57.45
2022-12-01T13:29:47.783Z,56.60
2022-12-01T13:32:34.155Z,55.60
2022-12-01T13:35:03.118Z,58.08
2022-12-01T13:37:38.716Z,56.83
2022-12-01T13:40:29.406Z,58.22
2022-12-01T13:45:40.493Z,53.47
2022-12-01T13:48:45.658Z,55.00
2022-12-01T13:51:12.322Z,59.20
2022-12-01T13:53:39.297Z,54.78
2022-12-01T13:56:15.049Z,55.40
2022-12-01T13:58:46.105Z,59.78
2022-12-01T14:01:22.516Z,57.05
2022-12-01T14:03:57.797Z,53.65
2022-12-01T14:06:51.412Z,61.78
2022-12-01T14:09:40.709Z,50.78
2022-12-01T14:12:32.840Z,57.35
2022-12-01T14:15:04.286Z,50.90
2022-12-01T14:17:37.138Z,48.20
2022-12-01T14:20:12.949Z,54.45
2022-12-01T14:22:44.054Z,50.05
2022-12-01T14:25:19.527Z,49.10
2022-12-01T14:27:48.299Z,52.45
2022-12-01T14:30:44.245Z,51.00
2022-12-01T14:33:48.105Z,53.22
2022-12-01T14:36:25.330Z,45.20
2022-12-01T14:38:57.744Z,47.70
2022-12-01T14:41:25.812Z,52.22
2022-12-01T14:44:06.650Z,51.17
2022-12-01T14:46:58.624Z,48.95
2022-12-01T14:49:35.088Z,46.90
2022-12-01T14:52:06.938Z,45.38
2022-12-01T14:54:44.611Z,50.72
2022-12-01T14:57:16.659Z,43.20
2022-12-01T14:59:44.714Z,50.13
2022-12-01T15:02:12.441Z,48.60
2022-12-01T15:05:06.668Z,48.40
2022-12-01T15:07:38.938Z,48.83
2022-12-01T15:10:06.763Z,54.55
2022-12-01T15:12:33.686Z,47.65
2022-12-01T15:15:00.393Z,44.97
2022-12-01T15:17:35.801Z,50.45
2022-12-01T15:20:03.201Z,45.05
2022-12-01T15:22:31.612Z,46.42
2022-12-01T15:25:15.253Z,44.75
2022-12-01T15:27:43.489Z,47.92
2022-12-01T15:30:14.872Z,45.35
2022-12-01T15:32:45.567Z,42.75
2022-12-01T15:35:22.368Z,45.25
2022-12-01T15:37:50.207Z,45.65
2022-12-01T15:43:14.676Z,49.80
2022-12-01T15:45:45.981Z,45.95
2022-12-01T15:48:27.591Z,45.60
2022-12-01T15:51:09.492Z,45.97
2022-12-01T15:53:40.366Z,44.80
2022-12-01T15:56:10.729Z,45.85
2022-12-01T15:58:45.879Z,44.20
2022-12-01T16:01:14.654Z,47.30
2022-12-01T16:03:59.324Z,43.90
2022-12-01T16:06:33.044Z,44.88
2022-12-01T16:09:19.004Z,52.25
2022-12-01T16:12:04.520Z,41.83
2022-12-01T16:14:32.250Z,51.67
2022-12-01T16:17:00.101Z,46.88
2022-12-01T16:19:32.275Z,42.38
2022-12-01T16:22:01.986Z,45.33
2022-12-01T16:24:30.680Z,45.58
2022-12-01T16:27:02.186Z,51.22
2022-12-01T16:29:31.390Z,44.95
2022-12-01T16:32:20.363Z,44.30
2022-12-01T16:34:47.956Z,48.28
2022-12-01T16:37:14.879Z,51.03
2022-12-01T16:39:41.568Z,48.75
2022-12-01T16:42:12.458Z,46.15
2022-12-01T16:44:39.854Z,44.60
2022-12-01T16:47:32.392Z,47.47
2022-12-01T16:49:58.954Z,46.08
2022-12-01T16:55:24.098Z,43.95
2022-12-01T16:57:51.337Z,46.58
2022-12-01T17:00:18.239Z,43.50
2022-12-01T17:02:44.827Z,44.10
2022-12-01T17:05:11.735Z,47.20
2022-12-01T17:07:38.546Z,45.17
2022-12-01T17:10:06.010Z,51.80
2022-12-01T17:12:32.575Z,51.22
2022-12-01T17:14:59.160Z,51.03
2022-12-01T17:17:25.706Z,51.58
2022-12-01T17:19:52.945Z,52.58
2022-12-01T17:22:19.876Z,46.47
2022-12-01T17:24:46.551Z,44.53
2022-12-01T17:27:13.307Z,46.70
2022-12-01T17:29:45.760Z,48.88
2022-12-01T17:32:13.692Z,50.72
2022-12-01T17:34:40.703Z,39.00
2022-12-01T17:37:07.761Z,46.33
2022-12-01T17:39:34.362Z,47.53
2022-12-01T17:42:01.041Z,40.20
2022-12-01T17:44:27.878Z,39.13
2022-12-01T17:46:54.499Z,44.92
2022-12-01T17:49:21.265Z,45.15
2022-12-01T17:51:47.952Z,47.03
2022-12-01T17:54:14.763Z,46.53
2022-12-01T17:56:42.633Z,46.85
2022-12-01T17:59:09.212Z,44.20
2022-12-01T18:01:35.917Z,47.47
2022-12-01T18:04:02.632Z,42.00
2022-12-01T18:06:29.459Z,43.45
2022-12-01T18:08:57.410Z,45.05
2022-12-01T18:11:24.237Z,45.30
2022-12-01T18:13:51.481Z,42.97
2022-12-01T18:16:27.400Z,42.90
2022-12-01T18:18:54.694Z,46.25
2022-12-01T18:21:22.883Z,42.85
2022-12-01T18:24:01.297Z,44.80
2022-12-01T18:26:29.272Z,42.42
2022-12-01T18:28:58.654Z,44.10
2022-12-01T18:31:26.328Z,43.53
2022-12-01T18:33:53.074Z,44.50
2022-12-01T18:36:22.502Z,52.47
2022-12-01T18:38:50.262Z,53.47
2022-12-01T18:41:17.794Z,56.53
2022-12-01T18:43:44.857Z,49.85
2022-12-01T18:46:13.481Z,51.55
2022-12-01T18:48:45.846Z,48.88
2022-12-01T18:51:12.757Z,46.10
2022-12-01T18:53:39.762Z,47.50
2022-12-01T18:56:11.707Z,42.55
2022-12-01T18:58:39.439Z,42.45
2022-12-01T19:01:24.504Z,44.22
2022-12-01T19:03:51.694Z,40.55
2022-12-01T19:06:18.558Z,38.85
2022-12-01T19:08:46.409Z,42.42
2022-12-01T19:11:13.443Z,37.72
2022-12-01T19:13:40.172Z,43.55
2022-12-01T19:16:18.706Z,40.88
2022-12-01T19:18:45.522Z,43.95
2022-12-01T19:21:14.827Z,42.58
2022-12-01T19:23:42.225Z,46.13
2022-12-01T19:26:13.235Z,49.80
2022-12-01T19:28:42.096Z,50.92
2022-12-01T19:31:13.596Z,45.22
2022-12-01T19:33:40.653Z,45.42
2022-12-01T19:36:09.921Z,41.25
2022-12-01T19:38:36.595Z,48.20
2022-12-01T19:41:05.182Z,48.28
2022-12-01T19:43:34.326Z,44.33
2022-12-01T19:46:12.549Z,43.50
2022-12-01T19:48:39.497Z,41.78
2022-12-01T19:51:06.224Z,40.15
2022-12-01T19:53:34.063Z,43.50
2022-12-01T19:56:03.239Z,47.22
2022-12-01T19:58:33.236Z,41.40
2022-12-01T20:01:11.519Z,33.80
2022-12-01T20:03:40.496Z,50.17
2022-12-01T20:06:09.594Z,45.97
2022-12-01T20:08:36.774Z,47.65
2022-12-01T20:11:04.771Z,45.10
2022-12-01T20:13:36.138Z,51.42
2022-12-01T20:16:05.538Z,49.38
2022-12-01T20:18:32.456Z,46.47
2022-12-01T20:21:17.585Z,51.05
2022-12-01T20:23:45.911Z,47.10
2022-12-01T20:26:14.491Z,48.53
2022-12-01T20:28:41.452Z,45.20
2022-12-01T20:31:17.047Z,45.05
2022-12-01T20:33:43.639Z,43.08
2022-12-01T20:36:10.615Z,48.50
2022-12-01T20:38:37.909Z,41.45
2022-12-01T20:41:05.296Z,44.83
2022-12-01T20:43:32.196Z,50.05
2022-12-01T20:45:59.258Z,48.00
2022-12-01T20:48:26.548Z,44.50
2022-12-01T20:50:53.200Z,44.72
2022-12-01T20:53:19.774Z,42.58
2022-12-01T20:55:46.373Z,45.97
2022-12-01T20:58:13.504Z,44.55
2022-12-01T21:00:44.058Z,45.50
2022-12-01T21:05:42.886Z,43.58
2022-12-01T21:08:12.755Z,40.58
2022-12-01T21:10:42.533Z,33.60
2022-12-01T21:13:39.375Z,48.03
2022-12-01T21:16:13.839Z,43.22
2022-12-01T21:18:55.362Z,46.47
2022-12-01T21:21:25.265Z,47.30
2022-12-01T21:24:10.924Z,38.65
2022-12-01T21:26:39.355Z,41.72
2022-12-01T21:29:24.902Z,42.08
2022-12-01T21:31:53.924Z,43.35
2022-12-01T21:34:23.754Z,46.92
2022-12-01T21:36:54.153Z,44.10
2022-12-01T21:39:22.992Z,41.10
2022-12-01T21:41:51.710Z,43.85
2022-12-01T21:44:20.718Z,43.22
2022-12-01T21:46:51.601Z,39.58
2022-12-01T21:49:21.296Z,44.95
2022-12-01T21:51:52.593Z,44.43
2022-12-01T21:54:20.709Z,45.97
2022-12-01T21:56:48.802Z,43.30
2022-12-01T21:59:23.392Z,44.42
2022-12-01T22:01:55.419Z,42.28
2022-12-01T22:04:25.789Z,47.10
2022-12-01T22:06:54.643Z,39.13
2022-12-01T22:09:27.228Z,44.95
2022-12-01T22:12:09.979Z,40.92
2022-12-01T22:14:36.739Z,45.15
2022-12-01T22:17:06.033Z,41.13
2022-12-01T22:19:34.169Z,47.92
2022-12-01T22:22:22.416Z,41.53
2022-12-01T22:24:51.622Z,41.67
2022-12-01T22:27:30.436Z,40.55
2022-12-01T22:30:17.262Z,49.08
2022-12-01T22:33:00.938Z,42.72
2022-12-01T22:35:39.101Z,45.08
2022-12-01T22:38:05.571Z,41.42
2022-12-01T22:40:37.655Z,47.97
2022-12-01T22:43:16.461Z,45.28
2022-12-01T22:45:57.425Z,42.67
2022-12-01T22:48:23.995Z,44.70
2022-12-01T22:50:52.018Z,43.50
2022-12-01T22:53:23.555Z,48.67
2022-12-01T22:55:54.815Z,47.47
2022-12-01T22:58:27.718Z,48.22
2022-12-01T23:00:57.968Z,42.80
2022-12-01T23:03:24.733Z,44.40
2022-12-01T23:05:55.340Z,44.80
2022-12-01T23:10:49.838Z,42.70
2022-12-01T23:13:22.699Z,46.22
2022-12-01T23:15:51.744Z,45.15
2022-12-01T23:18:28.447Z,41.08
2022-12-01T23:20:57.198Z,45.83
2022-12-01T23:23:35.257Z,48.05
2022-12-01T23:26:03.351Z,43.03
2022-12-01T23:28:30.477Z,47.25
2022-12-01T23:30:59.148Z,45.30
2022-12-01T23:33:29.689Z,47.75
2022-12-01T23:36:00.945Z,44.47
2022-12-01T23:38:36.550Z,41.65
2022-12-01T23:41:07.453Z,48.35
2022-12-01T23:43:43.151Z,44.97
2022-12-01T23:46:22.553Z,45.97
2022-12-01T23:48:52.222Z,47.42
2022-12-01T23:51:28.470Z,48.15
2022-12-01T23:53:57.032Z,43.17
2022-12-01T23:56:26.565Z,44.03
2022-12-01T23:58:55.804Z,46.20
